createdAt,value
2022-11-06T00:00:08.800Z,9.73
2022-11-06T00:01:08.830Z,9.77
2022-11-06T00:02:08.935Z,9.81
2022-11-06T00:03:08.931Z,9.73
2022-11-06T00:04:08.919Z,9.65
2022-11-06T00:05:08.951Z,9.67
2022-11-06T00:06:08.981Z,9.52
2022-11-06T00:07:09.017Z,9.58
2022-11-06T00:08:09.195Z,9.59
2022-11-06T00:09:09.075Z,9.53
2022-11-06T00:10:09.102Z,9.55
2022-11-06T00:11:09.134Z,9.42
2022-11-06T00:12:09.178Z,9.52
2022-11-06T00:13:09.196Z,9.52
2022-11-06T00:14:09.226Z,9.52
2022-11-06T00:15:09.257Z,9.52
2022-11-06T00:16:09.292Z,9.56
2022-11-06T00:17:09.319Z,9.53
2022-11-06T00:18:09.440Z,9.50
2022-11-06T00:19:09.383Z,9.52
2022-11-06T00:20:09.409Z,9.55
2022-11-06T00:21:09.441Z,9.55
2022-11-06T00:22:09.470Z,9.53
2022-11-06T00:23:09.501Z,9.55
2022-11-06T00:24:16.737Z,9.50
2022-11-06T00:26:13.591Z,9.65
2022-11-06T00:27:13.582Z,9.56
2022-11-06T00:29:06.587Z,9.55
2022-11-06T00:30:06.611Z,9.56
2022-11-06T00:32:10.670Z,9.58
2022-11-06T00:33:10.701Z,9.50
2022-11-06T00:35:14.767Z,9.59
2022-11-06T00:36:14.765Z,9.53
2022-11-06T00:38:18.790Z,9.40
2022-11-06T00:39:18.815Z,9.40
2022-11-06T00:41:22.875Z,9.49
2022-11-06T00:42:22.871Z,9.38
2022-11-06T00:44:15.819Z,9.31
2022-11-06T00:45:15.844Z,9.31
2022-11-06T00:47:08.842Z,9.41
2022-11-06T00:48:08.865Z,9.40
2022-11-06T00:50:13.067Z,9.40
2022-11-06T00:51:12.942Z,9.40
2022-11-06T00:53:28.055Z,9.32
2022-11-06T00:54:28.081Z,9.38
2022-11-06T00:56:32.147Z,9.34
2022-11-06T00:57:32.138Z,9.31
2022-11-06T00:59:36.168Z,9.30
2022-11-06T01:00:36.196Z,9.20
2022-11-06T01:02:40.315Z,9.12
2022-11-06T01:03:40.249Z,9.17
2022-11-06T01:05:44.362Z,9.13
2022-11-06T01:06:44.351Z,9.13
2022-11-06T01:08:37.314Z,9.17
2022-11-06T01:09:37.342Z,9.19
2022-11-06T01:12:12.393Z,9.15
2022-11-06T01:12:52.476Z,9.15
2022-11-06T01:14:45.433Z,9.23
2022-11-06T01:15:45.452Z,9.15
2022-11-06T01:17:49.527Z,9.19
2022-11-06T01:18:49.553Z,9.17
2022-11-06T01:20:42.511Z,9.13
2022-11-06T01:21:42.538Z,9.06
2022-11-06T01:23:57.645Z,9.10
2022-11-06T01:24:57.769Z,8.98
2022-11-06T01:28:01.727Z,9.04
2022-11-06T01:30:06.344Z,9.08
2022-11-06T01:31:05.976Z,9.04
2022-11-06T01:32:58.969Z,9.08
2022-11-06T01:33:58.994Z,9.04
2022-11-06T01:35:51.951Z,9.04
2022-11-06T01:36:51.978Z,9.06
2022-11-06T01:38:56.059Z,8.97
2022-11-06T01:39:56.033Z,9.00
2022-11-06T01:42:00.069Z,8.93
2022-11-06T01:43:00.090Z,8.88
2022-11-06T01:44:53.110Z,8.97
2022-11-06T01:45:53.071Z,8.91
2022-11-06T01:47:57.131Z,9.03
2022-11-06T01:48:57.149Z,9.01
2022-11-06T01:51:01.152Z,9.10
2022-11-06T01:52:01.183Z,9.06
2022-11-06T01:53:54.226Z,9.00
2022-11-06T01:54:54.253Z,9.00
2022-11-06T01:56:47.245Z,8.97
2022-11-06T01:57:47.273Z,8.96
2022-11-06T01:59:51.321Z,9.00
2022-11-06T02:00:51.349Z,9.01
2022-11-06T02:02:55.546Z,8.96
2022-11-06T02:03:55.405Z,9.03
2022-11-06T02:05:59.442Z,9.00
2022-11-06T02:06:59.469Z,8.97
2022-11-06T02:09:03.498Z,9.00
2022-11-06T02:10:03.525Z,8.98
2022-11-06T02:12:07.584Z,9.06
2022-11-06T02:13:07.577Z,9.04
2022-11-06T02:15:11.614Z,8.98
2022-11-06T02:16:11.641Z,9.00
2022-11-06T02:18:15.974Z,8.86
2022-11-06T02:19:15.697Z,8.89
2022-11-06T02:21:19.827Z,8.93
2022-11-06T02:22:19.815Z,8.88
2022-11-06T02:24:12.871Z,8.91
2022-11-06T02:25:12.797Z,8.89
2022-11-06T02:27:16.886Z,8.91
2022-11-06T02:28:16.855Z,8.93
2022-11-06T02:30:20.916Z,8.88
2022-11-06T02:31:20.923Z,8.89
2022-11-06T02:33:25.073Z,8.83
2022-11-06T02:34:25.105Z,8.91
2022-11-06T02:36:18.100Z,8.93
2022-11-06T02:37:18.126Z,8.91
2022-11-06T02:39:22.246Z,8.83
2022-11-06T02:40:22.185Z,8.82
2022-11-06T02:42:26.221Z,8.78
2022-11-06T02:43:26.235Z,8.80
2022-11-06T02:45:30.268Z,8.76
2022-11-06T02:46:30.293Z,8.80
2022-11-06T02:48:34.320Z,8.76
2022-11-06T02:49:34.346Z,8.82
2022-11-06T02:51:38.376Z,8.91
2022-11-06T02:52:38.403Z,8.85
2022-11-06T02:54:31.351Z,8.79
2022-11-06T02:55:31.374Z,8.76
2022-11-06T02:57:35.403Z,8.76
2022-11-06T02:58:38.781Z,8.80
2022-11-06T03:00:39.557Z,8.75
2022-11-06T03:01:39.598Z,8.73
2022-11-06T03:02:39.772Z,8.73
2022-11-06T03:03:39.609Z,8.75
2022-11-06T03:04:39.638Z,8.78
2022-11-06T03:05:39.666Z,8.73
2022-11-06T03:06:39.697Z,8.76
2022-11-06T03:07:39.726Z,8.76
2022-11-06T03:08:39.757Z,8.75
2022-11-06T03:09:39.788Z,8.79
2022-11-06T03:10:39.818Z,8.75
2022-11-06T03:11:39.847Z,8.82
2022-11-06T03:12:39.875Z,8.78
2022-11-06T03:13:39.907Z,8.73
2022-11-06T03:14:39.937Z,8.68
2022-11-06T03:15:39.965Z,8.63
2022-11-06T03:16:39.997Z,8.58
2022-11-06T03:17:40.025Z,8.64
2022-11-06T03:18:40.056Z,8.49
2022-11-06T03:19:40.086Z,8.57
2022-11-06T03:20:40.115Z,8.50
2022-11-06T03:21:40.147Z,8.60
2022-11-06T03:22:40.212Z,8.61
2022-11-06T03:23:40.209Z,8.60
2022-11-06T03:24:40.233Z,8.54
2022-11-06T03:25:40.268Z,8.47
2022-11-06T03:26:40.295Z,8.52
2022-11-06T03:27:40.326Z,8.52
2022-11-06T03:28:40.356Z,8.61
2022-11-06T03:29:40.385Z,8.49
2022-11-06T03:30:40.413Z,8.50
2022-11-06T03:31:40.445Z,8.61
2022-11-06T03:32:40.474Z,8.57
2022-11-06T03:33:40.504Z,8.58
2022-11-06T03:34:40.537Z,8.60
2022-11-06T03:35:40.570Z,8.49
2022-11-06T03:36:40.594Z,8.50
2022-11-06T03:37:40.625Z,8.50
2022-11-06T03:38:42.394Z,8.49
2022-11-06T03:39:40.684Z,8.52
2022-11-06T03:40:40.713Z,8.45
2022-11-06T03:41:40.748Z,8.49
2022-11-06T03:42:40.772Z,8.46
2022-11-06T03:43:40.806Z,8.47
2022-11-06T03:44:40.835Z,8.47
2022-11-06T03:45:40.862Z,8.49
2022-11-06T03:46:40.894Z,8.42
2022-11-06T03:47:40.922Z,8.45
2022-11-06T03:48:40.956Z,8.42
2022-11-06T03:49:40.984Z,8.31
2022-11-06T03:50:41.010Z,8.29
2022-11-06T03:51:41.041Z,8.28
2022-11-06T03:52:43.206Z,8.31
2022-11-06T03:53:41.103Z,8.29
2022-11-06T03:54:41.130Z,8.28
2022-11-06T03:55:41.160Z,8.24
2022-11-06T03:56:41.189Z,8.32
2022-11-06T03:57:41.225Z,8.25
2022-11-06T03:58:41.310Z,8.32
2022-11-06T03:59:41.279Z,8.36
2022-11-06T04:00:41.319Z,8.28
2022-11-06T04:01:41.450Z,8.27
2022-11-06T04:02:41.477Z,8.27
2022-11-06T04:03:41.398Z,8.18
2022-11-06T04:04:41.431Z,8.39
2022-11-06T04:05:41.459Z,8.31
2022-11-06T04:06:41.487Z,8.29
2022-11-06T04:07:41.521Z,8.28
2022-11-06T04:08:41.545Z,8.27
2022-11-06T04:09:41.580Z,8.14
2022-11-06T04:10:41.610Z,8.21
2022-11-06T04:11:41.641Z,8.25
2022-11-06T04:12:41.667Z,8.22
2022-11-06T04:13:41.697Z,8.21
2022-11-06T04:14:41.725Z,8.21
2022-11-06T04:15:41.755Z,8.24
2022-11-06T04:16:41.791Z,8.14
2022-11-06T04:17:41.814Z,8.07
2022-11-06T04:18:41.848Z,8.17
2022-11-06T04:19:41.922Z,8.22
2022-11-06T04:20:41.902Z,8.24
2022-11-06T04:21:41.934Z,8.18
2022-11-06T04:22:41.963Z,8.18
2022-11-06T04:23:41.991Z,8.21
2022-11-06T04:24:42.023Z,8.24
2022-11-06T04:25:42.051Z,8.17
2022-11-06T04:26:42.079Z,8.20
2022-11-06T04:27:42.109Z,8.17
2022-11-06T04:28:42.146Z,8.10
2022-11-06T04:29:42.181Z,8.17
2022-11-06T04:30:42.197Z,8.06
2022-11-06T04:31:42.229Z,8.07
2022-11-06T04:32:42.257Z,8.09
2022-11-06T04:33:42.290Z,8.09
2022-11-06T04:34:42.316Z,8.20
2022-11-06T04:35:42.346Z,8.18
2022-11-06T04:36:42.377Z,8.07
2022-11-06T04:37:42.407Z,8.10
2022-11-06T04:38:42.433Z,8.07
2022-11-06T04:39:42.464Z,8.09
2022-11-06T04:40:42.494Z,8.06
2022-11-06T04:41:42.526Z,8.17
2022-11-06T04:42:42.551Z,8.20
2022-11-06T04:43:42.589Z,8.14
2022-11-06T04:44:42.615Z,8.22
2022-11-06T04:45:42.646Z,8.22
2022-11-06T04:46:42.698Z,8.17
2022-11-06T04:47:42.699Z,8.21
2022-11-06T04:48:42.732Z,8.21
2022-11-06T04:49:42.760Z,8.13
2022-11-06T04:50:42.789Z,8.06
2022-11-06T04:51:42.819Z,8.10
2022-11-06T04:52:42.847Z,8.09
2022-11-06T04:53:42.877Z,8.07
2022-11-06T04:54:42.909Z,8.03
2022-11-06T04:55:42.938Z,8.07
2022-11-06T04:56:45.999Z,8.04
2022-11-06T04:57:42.998Z,7.99
2022-11-06T04:58:43.057Z,8.06
2022-11-06T04:59:43.056Z,8.04
2022-11-06T05:00:43.132Z,8.09
2022-11-06T05:01:43.377Z,8.09
2022-11-06T05:02:43.143Z,8.12
2022-11-06T05:03:43.178Z,8.13
2022-11-06T05:04:43.202Z,8.04
2022-11-06T05:05:43.233Z,8.12
2022-11-06T05:06:43.265Z,8.10
2022-11-06T05:07:43.290Z,8.14
2022-11-06T05:08:43.328Z,8.14
2022-11-06T05:09:43.350Z,8.10
2022-11-06T05:10:43.382Z,8.04
2022-11-06T05:11:43.413Z,8.09
2022-11-06T05:12:43.439Z,8.04
2022-11-06T05:13:43.469Z,8.07
2022-11-06T05:14:43.549Z,8.07
2022-11-06T05:15:43.526Z,8.09
2022-11-06T05:16:43.559Z,8.06
2022-11-06T05:17:43.589Z,8.07
2022-11-06T05:18:43.619Z,8.04
2022-11-06T05:19:43.644Z,8.07
2022-11-06T05:20:43.673Z,8.02
2022-11-06T05:21:43.711Z,8.07
2022-11-06T05:22:43.733Z,8.09
2022-11-06T05:23:43.764Z,8.12
2022-11-06T05:24:43.793Z,8.09
2022-11-06T05:25:43.823Z,8.07
2022-11-06T05:26:43.851Z,8.12
2022-11-06T05:27:43.881Z,8.07
2022-11-06T05:28:43.911Z,8.07
2022-11-06T05:29:43.963Z,8.04
2022-11-06T05:30:43.969Z,8.02
2022-11-06T05:31:44.000Z,8.00
2022-11-06T05:32:44.027Z,8.00
2022-11-06T05:33:44.162Z,8.03
2022-11-06T05:34:44.087Z,8.00
2022-11-06T05:35:44.116Z,8.04
2022-11-06T05:36:44.151Z,8.03
2022-11-06T05:37:44.178Z,8.07
2022-11-06T05:38:44.206Z,8.04
2022-11-06T05:39:44.238Z,8.04
2022-11-06T05:40:44.263Z,8.00
2022-11-06T05:41:44.295Z,7.94
2022-11-06T05:42:44.323Z,7.88
2022-11-06T05:43:44.352Z,7.91
2022-11-06T05:44:44.384Z,7.89
2022-11-06T05:45:44.413Z,7.88
2022-11-06T05:46:49.260Z,7.77
2022-11-06T05:47:44.474Z,7.79
2022-11-06T05:48:44.504Z,7.74
2022-11-06T05:49:44.534Z,7.71
2022-11-06T05:50:44.568Z,7.73
2022-11-06T05:51:44.594Z,7.70
2022-11-06T05:52:44.617Z,7.73
2022-11-06T05:53:44.649Z,7.70
2022-11-06T05:54:44.676Z,7.71
2022-11-06T05:55:44.706Z,7.70
2022-11-06T05:56:44.736Z,7.76
2022-11-06T05:57:44.766Z,7.76
2022-11-06T05:58:44.795Z,7.73
2022-11-06T05:59:44.831Z,7.71
2022-11-06T06:00:44.852Z,7.71
2022-11-06T06:01:44.936Z,7.73
2022-11-06T06:02:45.064Z,7.73
2022-11-06T06:03:44.943Z,7.74
2022-11-06T06:04:44.970Z,7.84
2022-11-06T06:05:45.003Z,7.85
2022-11-06T06:06:45.030Z,7.82
2022-11-06T06:07:45.059Z,7.79
2022-11-06T06:08:45.087Z,7.74
2022-11-06T06:09:45.120Z,7.76
2022-11-06T06:10:45.147Z,7.74
2022-11-06T06:11:45.176Z,7.69
2022-11-06T06:12:45.205Z,7.70
2022-11-06T06:13:45.237Z,7.66
2022-11-06T06:14:49.366Z,7.70
2022-11-06T06:15:45.294Z,7.71
2022-11-06T06:16:45.321Z,7.70
2022-11-06T06:17:45.355Z,7.67
2022-11-06T06:18:45.381Z,7.69
2022-11-06T06:19:45.412Z,7.71
2022-11-06T06:20:45.441Z,7.73
2022-11-06T06:21:45.471Z,7.76
2022-11-06T06:22:45.498Z,7.74
2022-11-06T06:23:45.528Z,7.74
2022-11-06T06:24:45.672Z,7.74
2022-11-06T06:25:45.592Z,7.71
2022-11-06T06:26:45.616Z,7.76
2022-11-06T06:27:45.645Z,7.71
2022-11-06T06:28:45.672Z,7.70
2022-11-06T06:29:45.705Z,7.73
2022-11-06T06:30:45.735Z,7.77
2022-11-06T06:31:45.762Z,7.74
2022-11-06T06:32:45.790Z,7.73
2022-11-06T06:33:45.823Z,7.73
2022-11-06T06:34:45.850Z,7.70
2022-11-06T06:35:45.879Z,7.63
2022-11-06T06:36:45.909Z,7.67
2022-11-06T06:37:45.940Z,7.63
2022-11-06T06:38:45.965Z,7.52
2022-11-06T06:39:45.997Z,7.57
2022-11-06T06:40:46.028Z,7.73
2022-11-06T06:41:46.054Z,7.71
2022-11-06T06:42:46.084Z,7.69
2022-11-06T06:43:46.114Z,7.71
2022-11-06T06:44:46.144Z,7.69
2022-11-06T06:45:46.179Z,7.77
2022-11-06T06:46:46.203Z,7.69
2022-11-06T06:47:46.230Z,7.71
2022-11-06T06:48:46.260Z,7.70
2022-11-06T06:49:46.288Z,7.70
2022-11-06T06:50:46.321Z,7.67
2022-11-06T06:51:46.348Z,7.62
2022-11-06T06:52:46.376Z,7.73
2022-11-06T06:53:46.422Z,7.69
2022-11-06T06:54:46.436Z,7.67
2022-11-06T06:55:46.464Z,7.60
2022-11-06T06:56:46.492Z,7.52
2022-11-06T06:57:46.535Z,7.51
2022-11-06T06:58:46.560Z,7.57
2022-11-06T06:59:46.587Z,7.62
2022-11-06T07:00:46.703Z,7.63
2022-11-06T07:01:46.764Z,7.63
2022-11-06T07:02:46.670Z,7.67
2022-11-06T07:03:46.701Z,7.63
2022-11-06T07:04:46.732Z,7.60
2022-11-06T07:05:46.765Z,7.67
2022-11-06T07:06:46.786Z,7.60
2022-11-06T07:07:46.815Z,7.67
2022-11-06T07:08:46.844Z,7.44
2022-11-06T07:09:46.973Z,7.57
2022-11-06T07:10:46.903Z,7.60
2022-11-06T07:11:46.936Z,7.73
2022-11-06T07:12:46.961Z,7.69
2022-11-06T07:13:46.993Z,7.74
2022-11-06T07:14:47.021Z,7.70
2022-11-06T07:15:47.049Z,7.69
2022-11-06T07:16:51.150Z,7.69
2022-11-06T07:17:47.107Z,7.76
2022-11-06T07:18:47.138Z,7.74
2022-11-06T07:19:47.168Z,7.73
2022-11-06T07:20:47.194Z,7.79
2022-11-06T07:21:47.229Z,7.79
2022-11-06T07:22:47.256Z,7.69
2022-11-06T07:23:47.283Z,7.69
2022-11-06T07:24:47.313Z,7.67
2022-11-06T07:25:47.342Z,7.67
2022-11-06T07:26:47.374Z,7.66
2022-11-06T07:27:47.402Z,7.67
2022-11-06T07:28:47.443Z,7.66
2022-11-06T07:29:47.461Z,7.58
2022-11-06T07:30:47.487Z,7.54
2022-11-06T07:31:47.519Z,7.69
2022-11-06T07:32:47.546Z,7.67
2022-11-06T07:33:47.574Z,7.73
2022-11-06T07:34:47.606Z,7.71
2022-11-06T07:35:47.632Z,7.73
2022-11-06T07:36:47.668Z,7.71
2022-11-06T07:37:47.691Z,7.79
2022-11-06T07:38:47.721Z,7.74
2022-11-06T07:39:47.748Z,7.77
2022-11-06T07:40:47.780Z,7.77
2022-11-06T07:41:47.815Z,7.81
2022-11-06T07:42:47.847Z,7.84
2022-11-06T07:43:47.867Z,7.86
2022-11-06T07:44:47.896Z,7.88
2022-11-06T07:45:47.926Z,7.84
2022-11-06T07:46:47.956Z,7.85
2022-11-06T07:47:47.983Z,7.91
2022-11-06T07:48:48.012Z,7.89
2022-11-06T07:49:50.881Z,7.88
2022-11-06T07:50:48.077Z,7.88
2022-11-06T07:51:48.100Z,7.85
2022-11-06T07:52:48.131Z,7.92
2022-11-06T07:53:48.157Z,7.92
2022-11-06T07:54:48.190Z,7.89
2022-11-06T07:55:48.216Z,7.91
2022-11-06T07:56:48.267Z,8.03
2022-11-06T07:57:48.282Z,8.03
2022-11-06T07:58:48.307Z,8.03
2022-11-06T07:59:48.334Z,7.99
2022-11-06T08:00:48.417Z,8.13
2022-11-06T08:01:48.569Z,8.07
2022-11-06T08:02:48.422Z,8.09
2022-11-06T08:03:48.456Z,8.20
2022-11-06T08:04:48.487Z,8.10
2022-11-06T08:05:48.509Z,8.13
2022-11-06T08:06:48.541Z,8.17
2022-11-06T08:07:48.569Z,8.24
2022-11-06T08:08:48.597Z,8.13
2022-11-06T08:09:48.627Z,8.21
2022-11-06T08:10:48.660Z,8.24
2022-11-06T08:11:48.685Z,8.25
2022-11-06T08:12:48.715Z,8.36
2022-11-06T08:13:48.744Z,8.22
2022-11-06T08:14:48.775Z,8.27
2022-11-06T08:15:48.805Z,8.25
2022-11-06T08:16:48.834Z,8.29
2022-11-06T08:17:48.860Z,8.28
2022-11-06T08:18:48.894Z,8.27
2022-11-06T08:19:48.929Z,8.40
2022-11-06T08:20:48.953Z,8.37
2022-11-06T08:21:48.980Z,8.37
2022-11-06T08:22:49.008Z,8.40
2022-11-06T08:23:49.047Z,8.43
2022-11-06T08:24:49.067Z,8.47
2022-11-06T08:25:49.096Z,8.49
2022-11-06T08:26:49.130Z,8.50
2022-11-06T08:27:49.154Z,8.46
2022-11-06T08:28:49.185Z,8.47
2022-11-06T08:29:49.216Z,8.45
2022-11-06T08:30:49.244Z,8.52
2022-11-06T08:31:49.272Z,8.65
2022-11-06T08:32:49.302Z,8.63
2022-11-06T08:33:49.332Z,8.71
2022-11-06T08:34:49.363Z,8.68
2022-11-06T08:35:49.389Z,8.78
2022-11-06T08:36:49.854Z,8.78
2022-11-06T08:37:49.450Z,8.71
2022-11-06T08:38:49.480Z,8.80
2022-11-06T08:39:49.508Z,8.78
2022-11-06T08:40:53.601Z,8.82
2022-11-06T08:41:49.569Z,8.80
2022-11-06T08:42:49.601Z,8.73
2022-11-06T08:43:49.630Z,8.86
2022-11-06T08:44:49.661Z,8.85
2022-11-06T08:45:49.689Z,8.89
2022-11-06T08:46:52.134Z,8.94
2022-11-06T08:47:49.748Z,8.97
2022-11-06T08:48:49.777Z,9.13
2022-11-06T08:49:49.807Z,9.12
2022-11-06T08:50:49.839Z,9.12
2022-11-06T08:51:49.864Z,9.15
2022-11-06T08:52:49.898Z,9.24
2022-11-06T08:53:49.970Z,9.35
2022-11-06T08:54:49.957Z,9.45
2022-11-06T08:55:49.986Z,9.41
2022-11-06T08:56:50.015Z,9.52
2022-11-06T08:57:50.043Z,9.53
2022-11-06T08:58:55.228Z,9.59
2022-11-06T08:59:50.104Z,9.59
2022-11-06T09:00:50.216Z,9.59
2022-11-06T09:01:50.383Z,9.71
2022-11-06T09:02:50.196Z,9.70
2022-11-06T09:03:50.227Z,9.80
2022-11-06T09:04:50.256Z,9.88
2022-11-06T09:05:50.284Z,9.95
2022-11-06T09:06:50.314Z,10.01
2022-11-06T09:07:50.346Z,9.96
2022-11-06T09:08:50.374Z,10.07
2022-11-06T09:09:50.405Z,10.10
2022-11-06T09:10:54.460Z,10.18
2022-11-06T09:11:50.463Z,10.22
2022-11-06T09:12:50.498Z,10.24
2022-11-06T09:13:50.525Z,10.34
2022-11-06T09:14:50.576Z,10.42
2022-11-06T09:15:50.585Z,10.47
2022-11-06T09:16:50.620Z,10.43
2022-11-06T09:17:50.650Z,10.47
2022-11-06T09:18:50.678Z,10.49
2022-11-06T09:19:50.707Z,10.57
2022-11-06T09:20:50.741Z,10.60
2022-11-06T09:21:54.687Z,10.68
2022-11-06T09:22:50.800Z,10.73
2022-11-06T09:23:50.831Z,10.72
2022-11-06T09:25:03.255Z,10.83
2022-11-06T09:25:50.893Z,10.98
2022-11-06T09:26:50.925Z,11.13
2022-11-06T09:27:55.678Z,11.21
2022-11-06T09:28:50.985Z,11.21
2022-11-06T09:29:51.017Z,11.38
2022-11-06T09:30:51.048Z,11.56
2022-11-06T09:31:51.078Z,11.46
2022-11-06T09:32:51.107Z,11.56
2022-11-06T09:33:51.143Z,11.60
2022-11-06T09:34:51.173Z,11.49
2022-11-06T09:35:51.202Z,11.51
2022-11-06T09:36:51.239Z,11.60
2022-11-06T09:37:51.270Z,11.81
2022-11-06T09:38:51.294Z,12.18
2022-11-06T09:39:51.325Z,12.73
2022-11-06T09:40:51.359Z,13.41
2022-11-06T09:41:51.385Z,14.09
2022-11-06T09:42:51.420Z,14.61
2022-11-06T09:44:04.783Z,15.05
2022-11-06T09:44:51.483Z,15.55
2022-11-06T09:45:54.888Z,16.30
2022-11-06T09:46:51.584Z,16.67
2022-11-06T09:47:51.576Z,16.90
2022-11-06T09:48:51.606Z,17.09
2022-11-06T09:49:51.657Z,17.30
2022-11-06T09:50:51.670Z,17.38
2022-11-06T09:51:51.699Z,17.39
2022-11-06T09:52:51.760Z,17.32
2022-11-06T09:53:51.794Z,17.17
2022-11-06T09:54:56.113Z,17.25
2022-11-06T09:55:51.830Z,17.24
2022-11-06T09:56:51.869Z,17.28
2022-11-06T09:57:51.916Z,17.39
2022-11-06T09:58:51.922Z,17.40
2022-11-06T09:59:51.952Z,17.38
2022-11-06T10:00:52.034Z,17.47
2022-11-06T10:01:52.105Z,17.49
2022-11-06T10:02:52.201Z,17.42
2022-11-06T10:03:52.079Z,17.39
2022-11-06T10:04:52.113Z,17.36
2022-11-06T10:05:52.144Z,17.15
2022-11-06T10:06:52.178Z,17.07
2022-11-06T10:07:52.205Z,17.14
2022-11-06T10:08:52.239Z,17.07
2022-11-06T10:09:52.270Z,17.24
2022-11-06T10:10:52.312Z,17.17
2022-11-06T10:11:52.343Z,17.32
2022-11-06T10:12:52.389Z,17.42
2022-11-06T10:13:52.407Z,17.45
2022-11-06T10:14:52.442Z,17.25
2022-11-06T10:15:52.473Z,17.12
2022-11-06T10:16:52.511Z,16.91
2022-11-06T10:17:52.639Z,17.00
2022-11-06T10:18:52.590Z,17.22
2022-11-06T10:19:52.613Z,17.28
2022-11-06T10:20:52.649Z,17.77
2022-11-06T10:21:52.688Z,18.21
2022-11-06T10:22:52.726Z,18.59
2022-11-06T10:23:52.761Z,18.82
2022-11-06T10:24:52.795Z,19.25
2022-11-06T10:25:52.832Z,19.68
2022-11-06T10:26:52.871Z,19.65
2022-11-06T10:27:52.914Z,19.92
2022-11-06T10:28:52.941Z,19.97
2022-11-06T10:29:52.979Z,19.94
2022-11-06T10:30:53.078Z,19.78
2022-11-06T10:31:53.052Z,19.53
2022-11-06T10:32:53.092Z,19.27
2022-11-06T10:33:53.126Z,19.05
2022-11-06T10:34:53.165Z,18.74
2022-11-06T10:35:53.204Z,18.71
2022-11-06T10:36:53.239Z,18.69
2022-11-06T10:37:53.278Z,18.79
2022-11-06T10:38:53.319Z,18.94
2022-11-06T10:39:53.351Z,19.10
2022-11-06T10:40:53.393Z,18.99
2022-11-06T10:41:53.434Z,18.90
2022-11-06T10:42:53.470Z,18.96
2022-11-06T10:43:53.518Z,18.96
2022-11-06T10:44:53.541Z,19.06
2022-11-06T10:45:53.581Z,19.15
2022-11-06T10:46:53.618Z,19.17
2022-11-06T10:47:53.656Z,19.34
2022-11-06T10:48:53.696Z,19.50
2022-11-06T10:49:53.732Z,19.72
2022-11-06T10:50:53.771Z,19.79
2022-11-06T10:51:53.806Z,20.04
2022-11-06T10:52:53.846Z,20.20
2022-11-06T10:53:53.887Z,20.44
2022-11-06T10:54:53.921Z,20.73
2022-11-06T10:55:53.960Z,21.03
2022-11-06T10:56:53.998Z,21.58
2022-11-06T10:57:54.037Z,21.96
2022-11-06T10:58:54.075Z,22.48
2022-11-06T10:59:54.111Z,22.96
2022-11-06T11:00:54.191Z,23.59
2022-11-06T11:01:54.371Z,24.05
2022-11-06T11:02:54.230Z,24.36
2022-11-06T11:03:54.283Z,24.48
2022-11-06T11:04:57.902Z,24.79
2022-11-06T11:05:54.342Z,25.07
2022-11-06T11:06:54.392Z,25.36
2022-11-06T11:07:54.418Z,25.75
2022-11-06T11:08:54.460Z,25.91
2022-11-06T11:09:54.503Z,26.01
2022-11-06T11:11:04.546Z,25.48
2022-11-06T11:11:54.572Z,25.49
2022-11-06T11:12:54.618Z,25.49
2022-11-06T11:13:54.649Z,25.22
2022-11-06T11:14:54.687Z,25.01
2022-11-06T11:15:54.723Z,24.60
2022-11-06T11:16:54.766Z,24.16
2022-11-06T11:17:54.801Z,23.68
2022-11-06T11:18:54.941Z,23.31
2022-11-06T11:19:54.878Z,22.79
2022-11-06T11:20:54.919Z,22.27
2022-11-06T11:21:54.956Z,21.91
2022-11-06T11:22:55.018Z,21.46
2022-11-06T11:23:55.036Z,21.00
2022-11-06T11:24:55.076Z,20.69
2022-11-06T11:25:55.115Z,20.40
2022-11-06T11:26:55.156Z,20.16
2022-11-06T11:27:55.196Z,19.72
2022-11-06T11:28:55.336Z,19.53
2022-11-06T11:29:55.276Z,19.31
2022-11-06T11:30:55.317Z,19.24
2022-11-06T11:31:55.357Z,19.28
2022-11-06T11:32:55.399Z,19.01
2022-11-06T11:33:55.440Z,19.02
2022-11-06T11:34:56.786Z,18.82
2022-11-06T11:35:55.522Z,18.79
2022-11-06T11:36:55.564Z,18.78
2022-11-06T11:37:55.608Z,18.66
2022-11-06T11:38:55.648Z,18.86
2022-11-06T11:39:55.691Z,18.57
2022-11-06T11:40:55.733Z,18.60
2022-11-06T11:41:56.033Z,18.59
2022-11-06T11:42:55.818Z,18.49
2022-11-06T11:43:55.861Z,18.64
2022-11-06T11:44:55.902Z,18.57
2022-11-06T11:45:55.947Z,18.62
2022-11-06T11:46:55.986Z,18.66
2022-11-06T11:47:56.031Z,18.69
2022-11-06T11:48:56.073Z,18.74
2022-11-06T11:49:56.138Z,18.78
2022-11-06T11:50:56.157Z,18.76
2022-11-06T11:51:56.198Z,18.87
2022-11-06T11:52:56.241Z,18.60
2022-11-06T11:53:56.286Z,18.76
2022-11-06T11:54:56.326Z,18.64
2022-11-06T11:55:56.367Z,18.71
2022-11-06T11:57:05.829Z,18.74
2022-11-06T11:57:56.452Z,18.74
2022-11-06T11:58:56.491Z,18.84
2022-11-06T11:59:56.540Z,19.05
2022-11-06T12:00:56.572Z,19.39
2022-11-06T12:01:56.731Z,19.78
2022-11-06T12:02:56.732Z,20.17
2022-11-06T12:03:56.698Z,20.72
2022-11-06T12:04:56.735Z,20.72
2022-11-06T12:05:56.775Z,21.19
2022-11-06T12:06:56.814Z,21.56
2022-11-06T12:07:56.856Z,21.85
2022-11-06T12:08:56.901Z,21.96
2022-11-06T12:09:56.935Z,21.94
2022-11-06T12:10:56.974Z,21.90
2022-11-06T12:11:57.010Z,22.06
2022-11-06T12:12:57.051Z,22.06
2022-11-06T12:13:57.103Z,21.99
2022-11-06T12:14:57.129Z,22.15
2022-11-06T12:15:57.171Z,22.41
2022-11-06T12:16:57.209Z,22.54
2022-11-06T12:17:57.247Z,22.96
2022-11-06T12:18:59.069Z,23.22
2022-11-06T12:19:57.325Z,23.37
2022-11-06T12:20:57.413Z,23.35
2022-11-06T12:21:57.402Z,23.57
2022-11-06T12:22:57.438Z,23.87
2022-11-06T12:24:06.170Z,23.82
2022-11-06T12:26:01.627Z,23.67
2022-11-06T12:27:01.669Z,23.53
2022-11-06T12:29:05.701Z,23.47
2022-11-06T12:30:05.726Z,23.34
2022-11-06T12:31:58.805Z,23.23
2022-11-06T12:32:58.800Z,23.32
2022-11-06T12:34:51.840Z,22.76
2022-11-06T12:35:51.873Z,22.42
2022-11-06T12:37:45.079Z,22.59
2022-11-06T12:38:45.074Z,22.70
2022-11-06T12:40:38.160Z,22.86
2022-11-06T12:41:38.133Z,22.67
2022-11-06T12:43:31.305Z,22.56
2022-11-06T12:44:31.346Z,22.35
2022-11-06T12:46:35.408Z,21.85
2022-11-06T12:47:35.443Z,21.48
2022-11-06T12:49:28.515Z,20.93
2022-11-06T12:50:28.508Z,20.78
2022-11-06T12:52:21.685Z,20.16
2022-11-06T12:53:21.726Z,19.90
2022-11-06T12:55:14.757Z,19.32
2022-11-06T12:56:14.762Z,18.93
2022-11-06T12:58:07.795Z,18.46
2022-11-06T12:59:07.833Z,18.26
2022-11-06T13:01:01.078Z,18.34
2022-11-06T13:02:01.272Z,18.19
2022-11-06T13:04:05.299Z,18.01
2022-11-06T13:05:05.340Z,17.86
2022-11-06T13:06:58.379Z,17.51
2022-11-06T13:07:58.386Z,17.35
2022-11-06T13:09:51.589Z,16.88
2022-11-06T13:10:51.590Z,16.75
2022-11-06T13:12:44.800Z,16.72
2022-11-06T13:13:44.796Z,16.67
2022-11-06T13:15:38.057Z,16.57
2022-11-06T13:16:38.141Z,16.60
2022-11-06T13:18:31.220Z,16.57
2022-11-06T13:19:31.253Z,16.66
2022-11-06T13:21:24.425Z,16.67
2022-11-06T13:22:24.454Z,16.45
2022-11-06T13:24:28.538Z,16.41
2022-11-06T13:25:28.568Z,16.33
2022-11-06T13:27:21.782Z,16.29
2022-11-06T13:28:21.776Z,16.30
2022-11-06T13:30:14.973Z,16.44
2022-11-06T13:31:14.971Z,16.42
2022-11-06T13:33:19.324Z,16.30
2022-11-06T13:34:19.083Z,16.11
2022-11-06T13:36:23.149Z,15.95
2022-11-06T13:37:23.176Z,15.93
2022-11-06T13:39:16.351Z,15.73
2022-11-06T13:40:16.383Z,15.62
2022-11-06T13:42:09.551Z,15.58
2022-11-06T13:43:09.580Z,15.53
2022-11-06T13:45:02.749Z,15.53
2022-11-06T13:46:02.779Z,15.46
2022-11-06T13:48:06.844Z,15.34
2022-11-06T13:49:06.911Z,15.22
2022-11-06T13:51:10.988Z,15.33
2022-11-06T13:52:10.983Z,15.40
2022-11-06T13:54:04.193Z,15.68
2022-11-06T13:55:04.174Z,15.95
2022-11-06T13:56:57.167Z,16.63
2022-11-06T13:57:57.199Z,16.85
2022-11-06T13:59:50.416Z,17.55
2022-11-06T14:00:50.397Z,17.95
2022-11-06T14:02:54.523Z,18.21
2022-11-06T14:03:54.519Z,18.31
2022-11-06T14:05:58.638Z,18.49
2022-11-06T14:06:58.630Z,18.31
2022-11-06T14:08:51.804Z,17.92
2022-11-06T14:09:51.833Z,17.86
2022-11-06T14:11:55.900Z,17.65
2022-11-06T14:12:55.931Z,17.76
2022-11-06T14:15:00.039Z,17.83
2022-11-06T14:16:00.035Z,17.98
2022-11-06T14:17:00.079Z,18.11
2022-11-06T14:18:00.150Z,18.29
2022-11-06T14:19:00.141Z,18.46
2022-11-06T14:20:00.182Z,18.60
2022-11-06T14:21:00.209Z,18.78
2022-11-06T14:22:00.256Z,18.84
2022-11-06T14:23:00.280Z,18.86
2022-11-06T14:24:00.320Z,18.78
2022-11-06T14:25:02.210Z,18.57
2022-11-06T14:26:00.388Z,18.54
2022-11-06T14:27:00.422Z,18.66
2022-11-06T14:28:00.462Z,18.68
2022-11-06T14:29:00.492Z,18.75
2022-11-06T14:30:00.534Z,18.69
2022-11-06T14:31:20.852Z,18.60
2022-11-06T14:32:00.603Z,18.42
2022-11-06T14:33:00.634Z,18.25
2022-11-06T14:34:00.670Z,17.95
2022-11-06T14:35:00.718Z,17.86
2022-11-06T14:36:00.743Z,17.57
2022-11-06T14:37:00.778Z,17.40
2022-11-06T14:38:00.817Z,17.22
2022-11-06T14:39:00.851Z,17.10